createdAt,value
2022-09-16T00:01:53.535Z,53.80
2022-09-16T00:04:27.261Z,58.33
2022-09-16T00:07:01.220Z,64.43
2022-09-16T00:09:29.571Z,51.92
2022-09-16T00:12:03.235Z,55.13
2022-09-16T00:14:31.572Z,55.70
2022-09-16T00:16:59.979Z,53.58
2022-09-16T00:19:28.338Z,60.38
2022-09-16T00:22:06.929Z,59.03
2022-09-16T00:24:35.334Z,56.13
2022-09-16T00:27:03.779Z,69.20
2022-09-16T00:29:32.209Z,58.60
2022-09-16T00:32:00.585Z,58.47
2022-09-16T00:34:34.235Z,65.05
2022-09-16T00:37:03.747Z,55.97
2022-09-16T00:39:32.133Z,57.63
2022-09-16T00:42:01.348Z,52.90
2022-09-16T00:44:55.262Z,54.33
2022-09-16T00:47:26.024Z,60.05
2022-09-16T00:50:12.552Z,52.07
2022-09-16T00:52:52.499Z,50.50
2022-09-16T00:55:28.570Z,55.53
2022-09-16T00:58:00.960Z,55.20
2022-09-16T01:00:39.726Z,50.28
2022-09-16T01:03:18.583Z,60.03
2022-09-16T01:05:58.012Z,45.45
2022-09-16T01:08:26.453Z,50.85
2022-09-16T01:11:04.996Z,49.90
2022-09-16T01:13:33.450Z,46.38
2022-09-16T01:16:09.505Z,44.97
2022-09-16T01:18:48.720Z,46.33
2022-09-16T01:21:24.695Z,46.03
2022-09-16T01:24:08.159Z,55.75
2022-09-16T01:26:57.655Z,54.70
2022-09-16T01:29:44.498Z,55.85
2022-09-16T01:32:23.198Z,59.92
2022-09-16T01:34:51.538Z,48.53
2022-09-16T01:37:33.298Z,55.65
2022-09-16T01:40:23.647Z,58.67
2022-09-16T01:46:21.090Z,56.17
2022-09-16T01:49:00.187Z,59.95
2022-09-16T01:51:48.020Z,59.47
2022-09-16T01:54:22.565Z,51.28
2022-09-16T01:57:08.058Z,66.28
2022-09-16T01:59:44.991Z,59.22
2022-09-16T02:02:27.250Z,58.20
2022-09-16T02:04:56.968Z,91.68
2022-09-16T02:07:37.050Z,78.90
2022-09-16T02:10:15.736Z,82.95
2022-09-16T02:12:45.319Z,52.63
2022-09-16T02:15:19.168Z,48.33
2022-09-16T02:17:49.273Z,49.05
2022-09-16T02:20:22.759Z,47.13
2022-09-16T02:22:54.352Z,54.33
2022-09-16T02:25:23.310Z,59.35
2022-09-16T02:27:52.556Z,59.00
2022-09-16T02:30:21.906Z,49.03
2022-09-16T02:32:56.598Z,56.80
2022-09-16T02:35:30.240Z,57.97
2022-09-16T02:38:12.200Z,63.90
2022-09-16T02:40:48.925Z,57.17
2022-09-16T02:43:17.634Z,70.18
2022-09-16T02:46:05.027Z,65.68
2022-09-16T02:48:52.131Z,59.13
2022-09-16T02:51:41.801Z,48.58
2022-09-16T02:54:29.179Z,40.92
2022-09-16T02:56:57.900Z,41.83
2022-09-16T02:59:26.586Z,41.40
2022-09-16T03:01:56.185Z,35.33
2022-09-16T03:04:24.783Z,38.20
2022-09-16T03:06:53.151Z,33.78
2022-09-16T03:09:24.868Z,46.40
2022-09-16T03:12:14.315Z,32.60
2022-09-16T03:15:04.140Z,45.22
2022-09-16T03:17:44.390Z,27.13
2022-09-16T03:20:15.531Z,32.03
2022-09-16T03:22:55.186Z,38.40
2022-09-16T03:25:23.627Z,34.10
2022-09-16T03:28:11.062Z,44.22
2022-09-16T03:30:43.981Z,38.17
2022-09-16T03:33:19.999Z,37.08
2022-09-16T03:35:50.113Z,43.45
2022-09-16T03:38:20.113Z,38.47
2022-09-16T03:40:49.162Z,47.45
2022-09-16T03:43:18.109Z,41.10
2022-09-16T03:45:46.559Z,39.95
2022-09-16T03:48:19.993Z,43.15
2022-09-16T03:50:48.361Z,42.97
2022-09-16T03:53:26.885Z,49.67
2022-09-16T03:55:55.325Z,38.22
2022-09-16T03:58:23.661Z,37.22
2022-09-16T04:00:52.191Z,42.22
2022-09-16T04:03:20.625Z,35.38
2022-09-16T04:05:58.192Z,42.20
2022-09-16T04:08:26.593Z,37.05
2022-09-16T04:11:06.058Z,39.42
2022-09-16T04:13:44.620Z,41.28
2022-09-16T04:16:13.151Z,34.50
2022-09-16T04:18:43.909Z,37.05
2022-09-16T04:21:17.852Z,30.30
2022-09-16T04:23:56.012Z,36.72
2022-09-16T04:26:24.371Z,34.22
2022-09-16T04:28:54.806Z,33.25
2022-09-16T04:31:32.439Z,37.45
2022-09-16T04:34:04.354Z,30.58
2022-09-16T04:36:33.083Z,33.03
2022-09-16T04:39:01.463Z,35.08
2022-09-16T04:41:30.127Z,27.55
2022-09-16T04:43:59.372Z,32.88
2022-09-16T04:46:28.502Z,28.95
2022-09-16T04:48:57.686Z,30.55
2022-09-16T04:51:30.193Z,25.42
2022-09-16T04:53:59.245Z,27.48
2022-09-16T04:56:28.677Z,21.38
2022-09-16T04:58:59.153Z,21.38
2022-09-16T05:01:30.182Z,14.23
2022-09-16T05:04:00.252Z,22.40
2022-09-16T05:06:34.759Z,16.85
2022-09-16T05:09:03.777Z,15.70
2022-09-16T05:11:34.218Z,10.00
2022-09-16T05:14:03.417Z,11.80
2022-09-16T05:16:33.233Z,9.07
2022-09-16T05:19:05.220Z,10.70
2022-09-16T05:21:43.776Z,9.77
2022-09-16T05:24:12.985Z,11.97
2022-09-16T05:26:44.655Z,11.63
2022-09-16T05:29:14.194Z,11.80
2022-09-16T05:31:43.511Z,5.72
2022-09-16T05:34:13.929Z,7.78
2022-09-16T05:36:44.254Z,6.30
2022-09-16T05:39:28.200Z,7.57
2022-09-16T05:41:57.571Z,8.02
2022-09-16T05:44:26.834Z,9.35
2022-09-16T05:47:05.382Z,7.53
2022-09-16T05:49:44.263Z,10.07
2022-09-16T05:52:12.853Z,5.45
2022-09-16T05:54:41.448Z,7.90
2022-09-16T05:57:09.834Z,9.13
2022-09-16T05:59:48.073Z,6.47
2022-09-16T06:02:16.700Z,7.97
2022-09-16T06:04:50.692Z,7.17
2022-09-16T06:07:23.035Z,10.43
2022-09-16T06:09:58.818Z,9.70
2022-09-16T06:12:34.467Z,8.05
2022-09-16T06:15:02.770Z,7.13
2022-09-16T06:17:36.535Z,6.75
2022-09-16T06:20:07.997Z,5.10
2022-09-16T06:22:36.475Z,7.57
2022-09-16T06:25:04.926Z,5.38
2022-09-16T06:27:33.809Z,7.82
2022-09-16T06:30:07.449Z,6.43
2022-09-16T06:32:35.774Z,7.00
2022-09-16T06:35:04.784Z,7.88
2022-09-16T06:37:34.594Z,8.45
2022-09-16T06:40:03.075Z,5.28
2022-09-16T06:42:32.414Z,8.30
2022-09-16T06:45:05.656Z,6.90
2022-09-16T06:47:43.666Z,9.10
2022-09-16T06:50:16.730Z,6.85
2022-09-16T06:52:52.813Z,6.63
2022-09-16T06:55:28.317Z,11.23
2022-09-16T06:57:57.201Z,4.93
2022-09-16T07:00:25.585Z,7.10
2022-09-16T07:02:53.970Z,8.95
2022-09-16T07:05:27.199Z,6.40
2022-09-16T07:07:55.469Z,5.00
2022-09-16T07:10:24.569Z,7.72
2022-09-16T07:12:52.979Z,5.65
2022-09-16T07:15:21.357Z,10.63
2022-09-16T07:17:55.738Z,7.13
2022-09-16T07:20:24.033Z,6.32
2022-09-16T07:22:57.285Z,8.65
2022-09-16T07:25:25.799Z,6.85
2022-09-16T07:27:54.882Z,9.27
2022-09-16T07:30:23.531Z,5.20
2022-09-16T07:32:51.840Z,5.38
2022-09-16T07:35:20.158Z,4.18
2022-09-16T07:37:48.604Z,4.05
2022-09-16T07:40:23.073Z,5.95
2022-09-16T07:42:52.888Z,10.32
2022-09-16T07:45:31.237Z,5.10
2022-09-16T07:47:59.660Z,4.97
2022-09-16T07:50:28.052Z,13.10
2022-09-16T07:53:02.105Z,6.45
2022-09-16T07:55:35.388Z,5.50
2022-09-16T07:58:09.187Z,6.18
2022-09-16T08:00:46.891Z,9.02
2022-09-16T08:03:20.416Z,5.78
2022-09-16T08:05:48.760Z,4.83
2022-09-16T08:08:25.042Z,7.50
2022-09-16T08:10:58.404Z,5.00
2022-09-16T08:13:29.511Z,5.47
2022-09-16T08:18:31.886Z,7.50
2022-09-16T08:21:05.393Z,5.28
2022-09-16T08:23:33.743Z,4.05
2022-09-16T08:26:02.236Z,5.28
2022-09-16T08:28:40.077Z,4.63
2022-09-16T08:31:19.869Z,4.82
2022-09-16T08:33:48.715Z,6.10
2022-09-16T08:36:20.257Z,5.68
2022-09-16T08:38:49.928Z,3.90
2022-09-16T08:41:25.156Z,3.85
2022-09-16T08:44:12.024Z,9.35
2022-09-16T08:46:53.551Z,7.73
2022-09-16T08:49:43.890Z,5.40
2022-09-16T08:52:19.252Z,5.38
2022-09-16T08:54:55.325Z,8.27
2022-09-16T08:57:26.050Z,6.20
2022-09-16T09:00:03.595Z,6.07
2022-09-16T09:05:22.678Z,11.38
2022-09-16T09:07:51.043Z,6.13
2022-09-16T09:10:19.789Z,6.75
2022-09-16T09:13:00.405Z,4.88
2022-09-16T09:15:40.667Z,4.50
2022-09-16T09:18:24.304Z,6.28
2022-09-16T09:20:52.674Z,7.00
2022-09-16T09:23:24.077Z,3.47
2022-09-16T09:26:03.709Z,2.87
2022-09-16T09:28:48.791Z,3.63
2022-09-16T09:31:17.185Z,5.28
2022-09-16T09:33:56.753Z,15.60
2022-09-16T09:39:39.973Z,21.65
2022-09-16T09:42:11.788Z,14.02
2022-09-16T09:45:01.477Z,5.68
2022-09-16T09:47:36.466Z,5.07
2022-09-16T09:50:31.218Z,8.85
2022-09-16T09:53:11.917Z,5.65
2022-09-16T09:55:41.501Z,7.10
2022-09-16T09:58:13.040Z,8.00
2022-09-16T10:00:42.359Z,5.03
2022-09-16T10:03:11.918Z,7.45
2022-09-16T10:05:40.954Z,13.80
2022-09-16T10:08:21.915Z,12.18
2022-09-16T10:10:56.437Z,16.48
2022-09-16T10:13:26.315Z,11.02
2022-09-16T10:16:07.443Z,5.63
2022-09-16T10:18:36.372Z,8.82
2022-09-16T10:21:16.902Z,4.55
2022-09-16T10:23:57.681Z,3.72
2022-09-16T10:26:27.238Z,5.00
2022-09-16T10:28:57.393Z,4.50
2022-09-16T10:31:29.249Z,4.85
2022-09-16T10:34:01.214Z,8.20
2022-09-16T10:36:32.860Z,3.50
2022-09-16T10:39:04.664Z,4.57
2022-09-16T10:41:46.076Z,4.00
2022-09-16T10:44:27.665Z,5.50
2022-09-16T10:47:01.185Z,5.95
2022-09-16T10:49:50.226Z,5.82
2022-09-16T10:52:23.135Z,8.20
2022-09-16T10:54:51.873Z,3.95
2022-09-16T10:57:26.917Z,8.85
2022-09-16T11:00:10.341Z,5.72
2022-09-16T11:02:52.570Z,5.30
2022-09-16T11:05:30.580Z,5.78
2022-09-16T11:08:02.026Z,5.13
2022-09-16T11:10:36.764Z,7.47
2022-09-16T11:13:33.512Z,7.70
2022-09-16T11:16:11.178Z,7.70
2022-09-16T11:19:12.796Z,3.35
2022-09-16T11:21:57.214Z,4.30
2022-09-16T11:24:28.573Z,6.03
2022-09-16T11:27:21.931Z,8.48
2022-09-16T11:30:05.160Z,6.53
2022-09-16T11:32:36.392Z,10.85
2022-09-16T11:35:31.545Z,8.25
2022-09-16T11:38:12.097Z,7.80
2022-09-16T11:40:40.497Z,3.30
2022-09-16T11:43:21.768Z,2.97
2022-09-16T11:46:05.733Z,6.45
2022-09-16T11:51:51.958Z,8.38
2022-09-16T11:54:39.095Z,12.98
2022-09-16T11:57:21.825Z,10.65
2022-09-16T12:00:01.567Z,9.32
2022-09-16T12:03:02.346Z,7.65
2022-09-16T12:05:38.758Z,9.10
2022-09-16T12:08:23.272Z,17.73
2022-09-16T12:11:20.827Z,8.43
2022-09-16T12:14:09.046Z,6.70
2022-09-16T12:16:46.123Z,3.43
2022-09-16T12:19:23.928Z,7.47
2022-09-16T12:21:57.892Z,11.20
2022-09-16T12:24:32.463Z,8.00
2022-09-16T12:30:17.705Z,12.05
2022-09-16T12:33:06.590Z,10.65
2022-09-16T12:35:56.338Z,12.25
2022-09-16T12:38:24.728Z,16.55
2022-09-16T12:41:11.655Z,12.75
2022-09-16T12:44:06.403Z,13.93
2022-09-16T12:46:54.382Z,15.77
2022-09-16T12:49:25.839Z,13.35
2022-09-16T12:52:13.123Z,10.25
2022-09-16T12:57:29.748Z,15.63
2022-09-16T13:06:07.321Z,92.00
2022-09-16T13:08:36.349Z,61.20
2022-09-16T13:11:52.427Z,40.47
2022-09-16T13:13:59.359Z,35.67
2022-09-16T13:16:37.474Z,26.15
2022-09-16T13:19:30.657Z,32.03
2022-09-16T13:22:25.148Z,18.98
2022-09-16T13:25:12.466Z,21.92
2022-09-16T13:27:42.027Z,32.87
2022-09-16T13:30:13.031Z,30.88
2022-09-16T13:32:46.248Z,26.60
2022-09-16T13:35:49.865Z,25.60
2022-09-16T13:38:18.254Z,26.63
2022-09-16T13:40:53.767Z,30.77
2022-09-16T13:43:34.316Z,28.67
2022-09-16T13:46:16.603Z,28.92
2022-09-16T13:48:52.858Z,34.70
2022-09-16T13:51:36.217Z,27.58
2022-09-16T13:54:27.855Z,34.08
2022-09-16T13:57:24.414Z,27.10
2022-09-16T13:59:53.209Z,25.98
2022-09-16T14:02:38.533Z,25.88
2022-09-16T14:05:31.566Z,23.40
2022-09-16T14:08:02.077Z,27.07
2022-09-16T14:11:00.480Z,30.60
2022-09-16T14:13:39.973Z,28.83
2022-09-16T14:16:28.150Z,27.77
2022-09-16T14:19:08.923Z,32.13
2022-09-16T14:21:42.305Z,32.05
2022-09-16T14:24:21.208Z,26.70
2022-09-16T14:26:53.752Z,33.13
2022-09-16T14:29:32.885Z,28.52
2022-09-16T14:32:04.042Z,27.73
2022-09-16T14:34:41.769Z,24.52
2022-09-16T14:37:16.405Z,26.02
2022-09-16T14:39:45.162Z,24.83
2022-09-16T14:42:24.131Z,24.15
2022-09-16T14:45:03.501Z,31.70
2022-09-16T14:47:57.401Z,35.38
2022-09-16T14:50:41.637Z,37.15
2022-09-16T14:53:35.810Z,32.80
2022-09-16T14:56:05.642Z,32.58
2022-09-16T14:58:34.582Z,33.07
2022-09-16T15:01:12.406Z,30.55
2022-09-16T15:03:41.478Z,29.42
2022-09-16T15:06:12.281Z,29.15
2022-09-16T15:09:00.837Z,25.63
2022-09-16T15:11:47.721Z,32.22
2022-09-16T15:14:22.543Z,26.08
2022-09-16T15:17:04.363Z,32.15
2022-09-16T15:19:40.191Z,19.50
2022-09-16T15:22:15.264Z,22.00
2022-09-16T15:24:44.182Z,27.13
2022-09-16T15:27:20.800Z,39.63
2022-09-16T15:29:57.215Z,38.83
2022-09-16T15:32:43.673Z,27.13
2022-09-16T15:35:14.693Z,33.33
2022-09-16T15:37:43.605Z,34.35
2022-09-16T15:40:33.006Z,53.78
2022-09-16T15:43:06.126Z,37.22
2022-09-16T15:45:46.737Z,36.00
2022-09-16T15:48:15.143Z,35.30
2022-09-16T15:50:47.184Z,27.33
2022-09-16T15:53:32.563Z,34.10
2022-09-16T15:56:05.143Z,34.65
2022-09-16T15:58:33.814Z,30.40
2022-09-16T16:01:03.011Z,35.55
2022-09-16T16:03:38.424Z,35.83
2022-09-16T16:06:06.899Z,30.23
2022-09-16T16:08:47.595Z,30.85
2022-09-16T16:11:20.717Z,33.40
2022-09-16T16:13:56.512Z,31.17
2022-09-16T16:16:33.107Z,28.33
2022-09-16T16:19:12.307Z,26.70
2022-09-16T16:21:46.324Z,26.90
2022-09-16T16:24:19.906Z,27.25
2022-09-16T16:26:48.352Z,23.05
2022-09-16T16:29:24.977Z,28.17
2022-09-16T16:32:00.753Z,29.05
2022-09-16T16:34:32.579Z,23.95
2022-09-16T16:37:01.251Z,26.02
2022-09-16T16:39:30.748Z,27.90
2022-09-16T16:42:11.226Z,24.52
2022-09-16T16:44:39.671Z,28.23
2022-09-16T16:47:08.823Z,24.15
2022-09-16T16:49:37.596Z,23.52
2022-09-16T16:52:06.695Z,23.10
2022-09-16T16:54:35.762Z,23.15
2022-09-16T16:57:11.384Z,22.38
2022-09-16T16:59:41.057Z,21.94
2022-09-16T17:02:28.072Z,23.10
2022-09-16T17:05:08.446Z,25.58
2022-09-16T17:07:37.053Z,17.15
2022-09-16T17:10:05.525Z,23.05
2022-09-16T17:12:33.983Z,16.42
2022-09-16T17:15:02.335Z,17.98
2022-09-16T17:17:32.286Z,23.27
2022-09-16T17:20:00.727Z,21.53
2022-09-16T17:22:41.428Z,20.25
2022-09-16T17:25:09.851Z,18.05
2022-09-16T17:27:38.585Z,20.08
2022-09-16T17:30:12.278Z,23.65
2022-09-16T17:32:52.178Z,14.65
2022-09-16T17:35:25.562Z,19.50
2022-09-16T17:37:59.627Z,16.15
2022-09-16T17:40:35.504Z,19.40
2022-09-16T17:43:03.911Z,13.05
2022-09-16T17:45:35.509Z,16.58
2022-09-16T17:48:10.089Z,14.82
2022-09-16T17:50:39.036Z,16.00
2022-09-16T17:53:17.695Z,18.33
2022-09-16T17:55:52.320Z,17.25
2022-09-16T17:58:20.710Z,12.57
2022-09-16T18:01:12.803Z,25.52
2022-09-16T18:03:46.969Z,14.93
2022-09-16T18:06:18.390Z,18.88
2022-09-16T18:08:46.840Z,15.45
2022-09-16T18:11:25.300Z,20.48
2022-09-16T18:13:54.796Z,14.75
2022-09-16T18:16:33.591Z,18.30
2022-09-16T18:19:02.755Z,14.90
2022-09-16T18:21:31.879Z,17.92
2022-09-16T18:24:02.302Z,15.40
2022-09-16T18:26:38.520Z,13.95
2022-09-16T18:29:11.180Z,14.02
2022-09-16T18:31:41.358Z,17.33
2022-09-16T18:34:10.300Z,12.80
2022-09-16T18:36:39.591Z,16.98
2022-09-16T18:39:11.884Z,16.02
2022-09-16T18:41:41.113Z,20.65
2022-09-16T18:44:17.092Z,17.17
2022-09-16T18:46:45.955Z,18.80
2022-09-16T18:49:15.263Z,16.10
2022-09-16T18:51:51.755Z,18.95
2022-09-16T18:54:25.180Z,16.27
2022-09-16T18:56:56.120Z,15.73
2022-09-16T18:59:28.666Z,16.65
2022-09-16T19:01:59.061Z,12.80
2022-09-16T19:04:29.221Z,17.08
2022-09-16T19:07:00.030Z,18.13
2022-09-16T19:09:28.491Z,16.50
2022-09-16T19:11:56.889Z,13.25
2022-09-16T19:14:27.743Z,12.02
2022-09-16T19:16:56.349Z,11.02
2022-09-16T19:19:24.876Z,15.35
2022-09-16T19:21:53.238Z,11.25
2022-09-16T19:24:22.626Z,10.82
2022-09-16T19:26:52.080Z,12.98
2022-09-16T19:29:21.101Z,11.57
2022-09-16T19:31:52.452Z,11.45
2022-09-16T19:34:29.837Z,12.10
2022-09-16T19:37:03.269Z,9.68
2022-09-16T19:39:37.331Z,10.02
2022-09-16T19:42:05.761Z,10.35
2022-09-16T19:44:34.194Z,10.65
2022-09-16T19:47:02.953Z,15.13
2022-09-16T19:49:41.480Z,14.68
2022-09-16T19:52:09.860Z,16.33
2022-09-16T19:54:38.258Z,17.42
2022-09-16T19:57:06.848Z,15.35
2022-09-16T19:59:39.808Z,14.48
2022-09-16T20:02:09.758Z,15.27
2022-09-16T20:04:38.238Z,15.55
2022-09-16T20:07:10.674Z,12.85
2022-09-16T20:12:11.892Z,14.25
2022-09-16T20:14:40.364Z,20.88
2022-09-16T20:17:08.730Z,18.15
2022-09-16T20:19:37.156Z,14.73
2022-09-16T20:22:15.593Z,17.45
2022-09-16T20:25:12.124Z,15.52
2022-09-16T20:27:40.453Z,16.15
2022-09-16T20:30:18.808Z,24.65
2022-09-16T20:32:47.226Z,18.23
2022-09-16T20:35:26.162Z,15.65
2022-09-16T20:37:54.598Z,31.23
2022-09-16T20:40:28.094Z,27.92
2022-09-16T20:42:56.556Z,27.25
2022-09-16T20:45:36.322Z,29.40
2022-09-16T20:48:04.755Z,25.80
2022-09-16T20:50:33.164Z,22.77
2022-09-16T20:53:07.077Z,28.63
2022-09-16T20:55:38.377Z,31.58
2022-09-16T20:58:07.688Z,40.22
2022-09-16T21:00:36.472Z,47.53
2022-09-16T21:03:12.140Z,51.63
2022-09-16T21:05:40.508Z,48.63
2022-09-16T21:08:18.638Z,50.83
2022-09-16T21:10:48.191Z,47.15
2022-09-16T21:13:16.617Z,47.10
2022-09-16T21:15:58.750Z,43.78
2022-09-16T21:18:37.027Z,48.38
2022-09-16T21:21:05.455Z,44.30
2022-09-16T21:23:34.999Z,44.05
2022-09-16T21:26:17.373Z,43.15
2022-09-16T21:28:46.559Z,45.95
2022-09-16T21:31:15.512Z,41.97
2022-09-16T21:33:58.522Z,46.30
2022-09-16T21:36:28.525Z,53.38
2022-09-16T21:38:57.303Z,45.38
2022-09-16T21:41:26.846Z,48.90
2022-09-16T21:44:00.338Z,46.78
2022-09-16T21:46:46.688Z,46.72
2022-09-16T21:49:26.122Z,44.60
2022-09-16T21:51:55.264Z,45.53
2022-09-16T21:54:33.711Z,41.35
2022-09-16T21:57:02.218Z,37.90
2022-09-16T21:59:30.526Z,34.20
2022-09-16T22:02:03.509Z,40.50
2022-09-16T22:04:32.258Z,37.13
2022-09-16T22:07:00.688Z,34.58
2022-09-16T22:09:33.926Z,39.75
2022-09-16T22:12:02.430Z,37.67
2022-09-16T22:14:30.843Z,40.10
2022-09-16T22:17:01.230Z,38.83
2022-09-16T22:19:29.706Z,42.03
2022-09-16T22:21:58.028Z,43.25
2022-09-16T22:24:26.373Z,41.35
2022-09-16T22:26:57.059Z,42.50
2022-09-16T22:29:25.499Z,36.25
2022-09-16T22:31:53.934Z,42.65
2022-09-16T22:34:22.382Z,44.05
2022-09-16T22:36:50.757Z,44.88
2022-09-16T22:39:20.319Z,46.53
2022-09-16T22:41:48.905Z,41.38
2022-09-16T22:44:17.268Z,40.70
2022-09-16T22:46:55.684Z,37.40
2022-09-16T22:49:24.047Z,41.95
2022-09-16T22:51:57.000Z,42.90
2022-09-16T22:54:25.415Z,38.50
2022-09-16T22:56:58.783Z,38.38
2022-09-16T22:59:27.151Z,39.58
2022-09-16T23:01:55.569Z,35.63
2022-09-16T23:04:29.156Z,44.78
2022-09-16T23:06:57.594Z,39.25
2022-09-16T23:09:26.043Z,41.63
2022-09-16T23:11:54.374Z,40.97
2022-09-16T23:14:24.523Z,48.83
2022-09-16T23:16:54.539Z,46.40
2022-09-16T23:19:27.516Z,36.97
2022-09-16T23:21:55.868Z,37.42
2022-09-16T23:24:24.288Z,41.93
2022-09-16T23:26:52.683Z,33.97
2022-09-16T23:29:21.079Z,38.78
2022-09-16T23:31:49.575Z,37.22
2022-09-16T23:34:19.554Z,40.55
2022-09-16T23:36:48.307Z,39.17
2022-09-16T23:39:17.111Z,43.45
2022-09-16T23:41:55.493Z,37.88
2022-09-16T23:44:26.005Z,44.45
2022-09-16T23:46:54.368Z,36.88
2022-09-16T23:49:23.212Z,38.70
2022-09-16T23:51:51.703Z,37.95
2022-09-16T23:54:23.756Z,35.25
2022-09-16T23:56:52.206Z,31.25
2022-09-16T23:59:20.568Z,34.88
